Norwegian Sun — C6RN3 — position and weather

sailwx.info

Track history (hours):
 
Tides and Currents Weather Stations Pressure Air Temp Water Temp Dewpoint Dewpoint Depression Visibility Wind Speed Wind Dir Waves Ship Positions

Norwegian Sun

Operator: Norwegian Cruise Line

Last reported at 2018-Oct-23 12:00 UTC. Time now 2018-Oct-24 04:50 UTC.
Position N 23°12' W 082°12'.

Type: Passenger vessel. MMSI: 311109000.

Wind from 140 at 15 knots

Barometer 1014.0 mb
Air temperature 26.0 ° C
Visibility: greater than 5.4 NM
Dewpoint 23.1 ° C
Water temperature 29.0 ° C

Date/timePositionNaut miles runAvg speedWind from/ knotsBaromVisibWave heightAir tempDewpointWater temp
2018-Oct-23 12:00N 23°12' W 082°12'19011.1 140 / 151014.0 5.4 26.023.129.0
2018-Oct-22 18:52N 25°21' W 079°38'615.7
2018-Oct-22 18:30N 25°26' W 079°38'715.5
2018-Oct-22 18:04N 25°33' W 079°37'115.5
2018-Oct-22 18:01N 25°34' W 079°37'4241.1
2018-Oct-22 18:00N 25°30' W 079°36'1224.3 090 / 231017.010.8 26.021.529.0
2018-Oct-22 17:31N 25°42' W 079°36'715.6
2018-Oct-22 17:04N 25°49' W 079°34'115.9
2018-Oct-22 17:00N 25°49' W 079°34'816.2
2018-Oct-22 16:31N 25°56' W 079°30'716.4
2018-Oct-22 16:03N 26°03' W 079°25'116.5
2018-Oct-22 16:01N 26°03' W 079°25'816.4
2018-Oct-22 15:31N 26°09' W 079°18'2 0.2
2018-Oct-22 02:48N 26°10' W 079°16'310.3
2018-Oct-22 02:30N 26°09' W 079°19'4 8.7
2018-Oct-22 02:03N 26°07' W 079°23'0 7.3
2018-Oct-22 02:00N 26°07' W 079°23'4 7.4
2018-Oct-22 01:30N 26°05' W 079°27'3 7.6
2018-Oct-22 01:03N 26°02' W 079°30'0 7.6
2018-Oct-22 00:59N 26°02' W 079°30'4 7.8
2018-Oct-22 00:30N 26°00' W 079°34'4 8.0
2018-Oct-22 00:03N 25°58' W 079°37'0 8.1
2018-Oct-22 00:00N 25°58' W 079°38'4 7.8
2018-Oct-21 23:30N 25°56' W 079°41'3 7.5
2018-Oct-21 23:03N 25°55' W 079°45'0 7.5
2018-Oct-21 23:00N 25°55' W 079°45'4 7.7
2018-Oct-21 22:30N 25°53' W 079°49'4 9.3
2018-Oct-21 22:03N 25°52' W 079°53'113.1
2018-Oct-21 22:00N 25°51' W 079°54'1111.5
2018-Oct-21 21:00N 25°46' W 080°05'5 9.3
2018-Oct-21 20:30N 25°47' W 080°10'0 0.2
2018-Oct-21 20:03N 25°47' W 080°10'0 0.0
2018-Oct-21 19:57N 25°47' W 080°10'0 0.0
2018-Oct-21 19:27N 25°47' W 080°10'0 0.0
2018-Oct-21 18:57N 25°47' W 080°10'0 0.0
2018-Oct-21 18:27N 25°47' W 080°10'0 0.0
2018-Oct-21 18:03N 25°47' W 080°10'0 0.0
2018-Oct-21 17:57N 25°47' W 080°10'0 0.0
2018-Oct-21 17:27N 25°47' W 080°10'0 0.0
2018-Oct-21 17:03N 25°47' W 080°10'0 0.0
2018-Oct-21 16:57N 25°47' W 080°10'0 0.0
2018-Oct-21 16:27N 25°47' W 080°10'0 0.0
2018-Oct-21 16:03N 25°47' W 080°10'0 0.0
2018-Oct-21 15:57N 25°47' W 080°10'0 0.0
2018-Oct-21 15:27N 25°47' W 080°10'0 0.0
2018-Oct-21 14:57N 25°47' W 080°10'0 0.0
2018-Oct-21 14:03N 25°47' W 080°10'0 0.0
2018-Oct-21 13:27N 25°47' W 080°10'0 0.0
2018-Oct-21 13:03N 25°47' W 080°10'0 0.0
2018-Oct-21 12:57N 25°47' W 080°10'0 0.0
2018-Oct-21 12:27N 25°47' W 080°10'0 0.0
2018-Oct-21 12:03N 25°47' W 080°10'0 0.0
2018-Oct-21 11:57N 25°47' W 080°10'0 0.0
2018-Oct-21 11:27N 25°47' W 080°10'0 0.0
2018-Oct-21 11:03N 25°47' W 080°10'0 0.0
2018-Oct-21 10:57N 25°47' W 080°10'0 0.0
2018-Oct-21 10:27N 25°47' W 080°10'0 0.0
2018-Oct-21 10:03N 25°47' W 080°10'0 0.0
2018-Oct-21 10:00N 25°47' W 080°10'1 1.0
2018-Oct-21 09:30N 25°47' W 080°11'2 4.6
2018-Oct-21 09:04N 25°46' W 080°09'0 7.7
2018-Oct-21 09:00N 25°46' W 080°08'611.6
2018-Oct-21 08:30N 25°46' W 080°02'614.2
2018-Oct-21 08:04N 25°43' W 079°56'116.1
2018-Oct-21 08:01N 25°42' W 079°55'816.6
2018-Oct-21 07:31N 25°37' W 079°48'716.3
2018-Oct-21 07:04N 25°33' W 079°42'117.7
2018-Oct-21 07:01N 25°32' W 079°41'918.7
2018-Oct-21 06:31N 25°23' W 079°40'5417.8
2018-Oct-21 03:30N 24°33' W 080°03'919.3
2018-Oct-21 03:02N 24°29' W 080°11'16220.2
2018-Oct-20 19:00N 23°24' W 082°54'27919.9 140 / 181013.010.8 28.022.129.0
2018-Oct-20 04:58N 20°38' W 086°56'1022.4
2018-Oct-20 04:31N 20°30' W 087°03'113 5.2
2018-Oct-19 07:00N 18°42' W 087°36'7712.9 110 / 271012.0 5.4 28.025.229.0
2018-Oct-19 01:00N 17°30' W 087°06'107 8.2 090 / 451010.0 5.4 29.024.830.0
2018-Oct-18 12:00N 16°00' W 088°06'43017.9 110 / 191009.0 5.4 27.024.130.0
2018-Oct-17 12:00N 22°30' W 084°54'333 9.7 120 / 131014.0 5.4 27.024.129.0
2018-Oct-16 01:45N 25°18' W 079°39'417.3
2018-Oct-16 01:30N 25°22' W 079°38'816.8
2018-Oct-16 01:03N 25°30' W 079°37'116.2
2018-Oct-16 01:00N 25°30' W 079°37'816.8
2018-Oct-16 00:30N 25°39' W 079°36'816.9
2018-Oct-16 00:03N 25°46' W 079°35'116.9
2018-Oct-16 00:00N 25°47' W 079°35'816.8
2018-Oct-15 23:30N 25°55' W 079°32'817.8
2018-Oct-15 23:03N 26°02' W 079°27'118.0
2018-Oct-15 23:00N 26°03' W 079°26'917.6
2018-Oct-15 22:30N 26°08' W 079°19'1 0.1
2018-Oct-15 02:30N 26°09' W 079°17'410.1
2018-Oct-15 02:03N 26°07' W 079°22'0 8.9
2018-Oct-15 02:00N 26°06' W 079°22'5 8.9
2018-Oct-15 01:25N 26°04' W 079°28'3 7.5
2018-Oct-15 01:03N 26°02' W 079°30'0 7.6
2018-Oct-15 01:00N 26°02' W 079°30'4 7.6
2018-Oct-15 00:30N 26°00' W 079°34'4 7.9
2018-Oct-15 00:03N 25°59' W 079°37'0 8.2
2018-Oct-15 00:00N 25°58' W 079°38'4 7.9
2018-Oct-14 23:30N 25°57' W 079°42'4 8.0
2018-Oct-14 23:03N 25°55' W 079°46'0 8.1
2018-Oct-14 23:00N 25°55' W 079°46'4 7.7
2018-Oct-14 22:30N 25°53' W 079°50'4 8.5
2018-Oct-14 22:03N 25°51' W 079°53'0 8.8
2018-Oct-14 22:01N 25°51' W 079°54'4 8.9
2018-Oct-14 21:30N 25°49' W 079°58'4 9.9
2018-Oct-14 21:03N 25°47' W 080°03'110.5
2018-Oct-14 21:00N 25°47' W 080°03'5 9.4
2018-Oct-14 20:30N 25°46' W 080°08'2 4.8
2018-Oct-14 20:04N 25°47' W 080°11'0 0.4
2018-Oct-14 20:00N 25°47' W 080°11'0 0.0
2018-Oct-14 19:29N 25°47' W 080°11'0 0.0
2018-Oct-14 18:59N 25°47' W 080°11'0 0.0
2018-Oct-14 18:29N 25°47' W 080°11'0 0.0
2018-Oct-14 18:02N 25°47' W 080°11'0 0.0
2018-Oct-14 17:59N 25°47' W 080°11'0 0.0
2018-Oct-14 17:29N 25°47' W 080°11'0 0.0
2018-Oct-14 17:02N 25°47' W 080°11'0 0.0
2018-Oct-14 16:59N 25°47' W 080°11'0 0.0
2018-Oct-14 16:29N 25°47' W 080°11'0 0.0
2018-Oct-14 16:02N 25°47' W 080°11'0 0.0
2018-Oct-14 15:59N 25°47' W 080°11'0 0.0
2018-Oct-14 15:29N 25°47' W 080°11'0 0.0
2018-Oct-14 15:02N 25°47' W 080°11'0 0.0
2018-Oct-14 14:59N 25°47' W 080°11'0 0.0
2018-Oct-14 14:29N 25°47' W 080°11'0 0.0
2018-Oct-14 13:59N 25°47' W 080°11'0 0.0
2018-Oct-14 13:29N 25°47' W 080°11'0 0.0
2018-Oct-14 13:02N 25°47' W 080°11'0 0.0
2018-Oct-14 12:59N 25°47' W 080°11'0 0.0
2018-Oct-14 12:23N 25°47' W 080°11'0 0.0
2018-Oct-14 12:02N 25°47' W 080°11'0 0.0
2018-Oct-14 11:59N 25°47' W 080°11'0 0.0
2018-Oct-14 11:26N 25°47' W 080°11'0 0.0
2018-Oct-14 11:03N 25°47' W 080°11'0 0.1
2018-Oct-14 11:00N 25°47' W 080°11'0 0.4
2018-Oct-14 10:30N 25°47' W 080°11'2 4.5
2018-Oct-14 10:03N 25°46' W 080°09'0 4.2
2018-Oct-14 10:00N 25°46' W 080°09'5 9.5
2018-Oct-14 09:30N 25°46' W 080°03'510.5
2018-Oct-14 09:04N 25°44' W 079°59'113.9
2018-Oct-14 09:01N 25°44' W 079°58'714.2
2018-Oct-14 08:30N 25°39' W 079°52'614.2
2018-Oct-14 08:03N 25°34' W 079°47'113.9
2018-Oct-14 08:00N 25°34' W 079°47'715.0
2018-Oct-14 07:30N 25°28' W 079°42'  
Track history (hours):
 
Tides and Currents Weather Stations Pressure Air Temp Water Temp Dewpoint Dewpoint Depression Visibility Wind Speed Wind Dir Waves Ship Positions

Norwegian Sun

Operator: Norwegian Cruise Line

Last reported at 2018-Oct-23 12:00 UTC. Time now 2018-Oct-24 04:50 UTC.
Position N 23°12' W 082°12'.

Type: Passenger vessel. MMSI: 311109000.

Wind from 140 at 15 knots

Barometer 1014.0 mb
Air temperature 26.0 ° C
Visibility: greater than 5.4 NM
Dewpoint 23.1 ° C
Water temperature 29.0 ° C

Date/timePositionNaut miles runAvg speedWind from/ knotsBaromVisibWave heightAir tempDewpointWater temp
2018-Oct-23 12:00N 23°12' W 082°12'19011.1 140 / 151014.0 5.4 26.023.129.0
2018-Oct-22 18:52N 25°21' W 079°38'615.7
2018-Oct-22 18:30N 25°26' W 079°38'715.5
2018-Oct-22 18:04N 25°33' W 079°37'115.5
2018-Oct-22 18:01N 25°34' W 079°37'4241.1
2018-Oct-22 18:00N 25°30' W 079°36'1224.3 090 / 231017.010.8 26.021.529.0
2018-Oct-22 17:31N 25°42' W 079°36'715.6
2018-Oct-22 17:04N 25°49' W 079°34'115.9
2018-Oct-22 17:00N 25°49' W 079°34'816.2
2018-Oct-22 16:31N 25°56' W 079°30'716.4
2018-Oct-22 16:03N 26°03' W 079°25'116.5
2018-Oct-22 16:01N 26°03' W 079°25'816.4
2018-Oct-22 15:31N 26°09' W 079°18'2 0.2
2018-Oct-22 02:48N 26°10' W 079°16'310.3
2018-Oct-22 02:30N 26°09' W 079°19'4 8.7
2018-Oct-22 02:03N 26°07' W 079°23'0 7.3
2018-Oct-22 02:00N 26°07' W 079°23'4 7.4
2018-Oct-22 01:30N 26°05' W 079°27'3 7.6
2018-Oct-22 01:03N 26°02' W 079°30'0 7.6
2018-Oct-22 00:59N 26°02' W 079°30'4 7.8
2018-Oct-22 00:30N 26°00' W 079°34'4 8.0
2018-Oct-22 00:03N 25°58' W 079°37'0 8.1
2018-Oct-22 00:00N 25°58' W 079°38'4 7.8
2018-Oct-21 23:30N 25°56' W 079°41'3 7.5
2018-Oct-21 23:03N 25°55' W 079°45'0 7.5
2018-Oct-21 23:00N 25°55' W 079°45'4 7.7
2018-Oct-21 22:30N 25°53' W 079°49'4 9.3
2018-Oct-21 22:03N 25°52' W 079°53'113.1
2018-Oct-21 22:00N 25°51' W 079°54'1111.5
2018-Oct-21 21:00N 25°46' W 080°05'5 9.3
2018-Oct-21 20:30N 25°47' W 080°10'0 0.2
2018-Oct-21 20:03N 25°47' W 080°10'0 0.0
2018-Oct-21 19:57N 25°47' W 080°10'0 0.0
2018-Oct-21 19:27N 25°47' W 080°10'0 0.0
2018-Oct-21 18:57N 25°47' W 080°10'0 0.0
2018-Oct-21 18:27N 25°47' W 080°10'0 0.0
2018-Oct-21 18:03N 25°47' W 080°10'0 0.0
2018-Oct-21 17:57N 25°47' W 080°10'0 0.0
2018-Oct-21 17:27N 25°47' W 080°10'0 0.0
2018-Oct-21 17:03N 25°47' W 080°10'0 0.0
2018-Oct-21 16:57N 25°47' W 080°10'0 0.0
2018-Oct-21 16:27N 25°47' W 080°10'0 0.0
2018-Oct-21 16:03N 25°47' W 080°10'0 0.0
2018-Oct-21 15:57N 25°47' W 080°10'0 0.0
2018-Oct-21 15:27N 25°47' W 080°10'0 0.0
2018-Oct-21 14:57N 25°47' W 080°10'0 0.0
2018-Oct-21 14:03N 25°47' W 080°10'0 0.0
2018-Oct-21 13:27N 25°47' W 080°10'0 0.0
2018-Oct-21 13:03N 25°47' W 080°10'0 0.0
2018-Oct-21 12:57N 25°47' W 080°10'0 0.0
2018-Oct-21 12:27N 25°47' W 080°10'0 0.0
2018-Oct-21 12:03N 25°47' W 080°10'0 0.0
2018-Oct-21 11:57N 25°47' W 080°10'0 0.0
2018-Oct-21 11:27N 25°47' W 080°10'0 0.0
2018-Oct-21 11:03N 25°47' W 080°10'0 0.0
2018-Oct-21 10:57N 25°47' W 080°10'0 0.0
2018-Oct-21 10:27N 25°47' W 080°10'0 0.0
2018-Oct-21 10:03N 25°47' W 080°10'0 0.0
2018-Oct-21 10:00N 25°47' W 080°10'1 1.0
2018-Oct-21 09:30N 25°47' W 080°11'2 4.6
2018-Oct-21 09:04N 25°46' W 080°09'0 7.7
2018-Oct-21 09:00N 25°46' W 080°08'611.6
2018-Oct-21 08:30N 25°46' W 080°02'614.2
2018-Oct-21 08:04N 25°43' W 079°56'116.1
2018-Oct-21 08:01N 25°42' W 079°55'816.6
2018-Oct-21 07:31N 25°37' W 079°48'716.3
2018-Oct-21 07:04N 25°33' W 079°42'117.7
2018-Oct-21 07:01N 25°32' W 079°41'918.7
2018-Oct-21 06:31N 25°23' W 079°40'5417.8
2018-Oct-21 03:30N 24°33' W 080°03'919.3
2018-Oct-21 03:02N 24°29' W 080°11'16220.2
2018-Oct-20 19:00N 23°24' W 082°54'27919.9 140 / 181013.010.8 28.022.129.0
2018-Oct-20 04:58N 20°38' W 086°56'1022.4
2018-Oct-20 04:31N 20°30' W 087°03'113 5.2
2018-Oct-19 07:00N 18°42' W 087°36'7712.9 110 / 271012.0 5.4 28.025.229.0
2018-Oct-19 01:00N 17°30' W 087°06'107 8.2 090 / 451010.0 5.4 29.024.830.0
2018-Oct-18 12:00N 16°00' W 088°06'43017.9 110 / 191009.0 5.4 27.024.130.0
2018-Oct-17 12:00N 22°30' W 084°54'333 9.7 120 / 131014.0 5.4 27.024.129.0
2018-Oct-16 01:45N 25°18' W 079°39'417.3
2018-Oct-16 01:30N 25°22' W 079°38'816.8
2018-Oct-16 01:03N 25°30' W 079°37'116.2
2018-Oct-16 01:00N 25°30' W 079°37'816.8
2018-Oct-16 00:30N 25°39' W 079°36'816.9
2018-Oct-16 00:03N 25°46' W 079°35'116.9
2018-Oct-16 00:00N 25°47' W 079°35'816.8
2018-Oct-15 23:30N 25°55' W 079°32'817.8
2018-Oct-15 23:03N 26°02' W 079°27'118.0
2018-Oct-15 23:00N 26°03' W 079°26'917.6
2018-Oct-15 22:30N 26°08' W 079°19'1 0.1
2018-Oct-15 02:30N 26°09' W 079°17'410.1
2018-Oct-15 02:03N 26°07' W 079°22'0 8.9
2018-Oct-15 02:00N 26°06' W 079°22'5 8.9
2018-Oct-15 01:25N 26°04' W 079°28'3 7.5
2018-Oct-15 01:03N 26°02' W 079°30'0 7.6
2018-Oct-15 01:00N 26°02' W 079°30'4 7.6
2018-Oct-15 00:30N 26°00' W 079°34'4 7.9
2018-Oct-15 00:03N 25°59' W 079°37'0 8.2
2018-Oct-15 00:00N 25°58' W 079°38'4 7.9
2018-Oct-14 23:30N 25°57' W 079°42'4 8.0
2018-Oct-14 23:03N 25°55' W 079°46'0 8.1
2018-Oct-14 23:00N 25°55' W 079°46'4 7.7
2018-Oct-14 22:30N 25°53' W 079°50'4 8.5
2018-Oct-14 22:03N 25°51' W 079°53'0 8.8
2018-Oct-14 22:01N 25°51' W 079°54'4 8.9
2018-Oct-14 21:30N 25°49' W 079°58'4 9.9
2018-Oct-14 21:03N 25°47' W 080°03'110.5
2018-Oct-14 21:00N 25°47' W 080°03'5 9.4
2018-Oct-14 20:30N 25°46' W 080°08'2 4.8
2018-Oct-14 20:04N 25°47' W 080°11'0 0.4
2018-Oct-14 20:00N 25°47' W 080°11'0 0.0
2018-Oct-14 19:29N 25°47' W 080°11'0 0.0
2018-Oct-14 18:59N 25°47' W 080°11'0 0.0
2018-Oct-14 18:29N 25°47' W 080°11'0 0.0
2018-Oct-14 18:02N 25°47' W 080°11'0 0.0
2018-Oct-14 17:59N 25°47' W 080°11'0 0.0
2018-Oct-14 17:29N 25°47' W 080°11'0 0.0
2018-Oct-14 17:02N 25°47' W 080°11'0 0.0
2018-Oct-14 16:59N 25°47' W 080°11'0 0.0
2018-Oct-14 16:29N 25°47' W 080°11'0 0.0
2018-Oct-14 16:02N 25°47' W 080°11'0 0.0
2018-Oct-14 15:59N 25°47' W 080°11'0 0.0
2018-Oct-14 15:29N 25°47' W 080°11'0 0.0
2018-Oct-14 15:02N 25°47' W 080°11'0 0.0
2018-Oct-14 14:59N 25°47' W 080°11'0 0.0
2018-Oct-14 14:29N 25°47' W 080°11'0 0.0
2018-Oct-14 13:59N 25°47' W 080°11'0 0.0
2018-Oct-14 13:29N 25°47' W 080°11'0 0.0
2018-Oct-14 13:02N 25°47' W 080°11'0 0.0
2018-Oct-14 12:59N 25°47' W 080°11'0 0.0
2018-Oct-14 12:23N 25°47' W 080°11'0 0.0
2018-Oct-14 12:02N 25°47' W 080°11'0 0.0
2018-Oct-14 11:59N 25°47' W 080°11'0 0.0
2018-Oct-14 11:26N 25°47' W 080°11'0 0.0
2018-Oct-14 11:03N 25°47' W 080°11'0 0.1
2018-Oct-14 11:00N 25°47' W 080°11'0 0.4
2018-Oct-14 10:30N 25°47' W 080°11'2 4.5
2018-Oct-14 10:03N 25°46' W 080°09'0 4.2
2018-Oct-14 10:00N 25°46' W 080°09'5 9.5
2018-Oct-14 09:30N 25°46' W 080°03'510.5
2018-Oct-14 09:04N 25°44' W 079°59'113.9
2018-Oct-14 09:01N 25°44' W 079°58'714.2
2018-Oct-14 08:30N 25°39' W 079°52'614.2
2018-Oct-14 08:03N 25°34' W 079°47'113.9
2018-Oct-14 08:00N 25°34' W 079°47'715.0
2018-Oct-14 07:30N 25°28' W 079°42'  

Dump ship's entire track history